Changi, Singapore
Current Conditions -  °F | °C
As of 9:30 PM on Thursday 23 Oct 2014 (Local Time) from WSSS Reporting Station
Broken Clouds Broken Clouds  
Wind Chill: 81°   Ceiling: 30000
Heat Index: 86°   Visibility: 5mi
Dew Point: 75°   Wind: 2mph
Humidity: 84%   Direction: NA
Pressure: 29.85"   Gusts: NA
Location:  1.39°N, 103.98°E
Report Text: WSSS 231330Z VRB02KT 8000 FEW018 BKN300 27/24 Q1011 NOSIG
Loading
Personal Weather Stations






























Interactive Weather Map
Tropical Storm Tracking
New forecast layout! Learn more

10-Day Weather Forecast

Advertisements
Track Severe Weather on mobile